Time;durP1;ratioP1;P1;durP2;ratioP2;P2;SDS_P1;SDS_P2;PMS_P1;PMS_P2;Temp;Humidity;BMP_temperature;BMP_pressure;BME280_temperature;BME280_humidity;BME280_pressure;Samples;Min_cycle;Max_cycle;Signal;HPM_P1;HPM_P2
2022/04/03 00:01:42;;;;;;;0.10;0.10;;;;;;;6.10;51.80;102508.78;5085115;28;20109;-79
2022/04/03 00:04:08;;;;;;;0.10;0.10;;;;;;;6.15;51.44;102517.69;5085986;28;20051;-79
2022/04/03 00:06:34;;;;;;;0.10;0.10;;;;;;;6.17;51.33;102515.09;5086353;28;20063;-78
2022/04/03 00:09:01;;;;;;;0.20;0.20;;;;;;;6.21;51.02;102505.56;5086135;28;20111;-79
2022/04/03 00:11:28;;;;;;;0.10;0.10;;;;;;;6.22;51.30;102515.19;5084329;28;20027;-79
2022/04/03 00:13:56;;;;;;;0.10;0.10;;;;;;;6.23;51.18;102512.63;5088221;28;20043;-79
2022/04/03 00:16:22;;;;;;;4.78;0.75;;;;;;;6.24;51.07;102513.50;5085567;28;20024;-80
2022/04/03 00:18:49;;;;;;;0.10;0.10;;;;;;;6.21;50.84;102510.81;5083287;28;20024;-79
2022/04/03 00:21:17;;;;;;;0.10;0.10;;;;;;;6.20;51.09;102511.66;5084798;28;20055;-80
2022/04/03 00:23:43;;;;;;;0.10;0.10;;;;;;;6.19;50.63;102512.50;5090680;28;20044;-79
2022/04/03 00:26:10;;;;;;;0.10;0.10;;;;;;;6.17;50.83;102508.94;5090249;28;20036;-79
2022/04/03 00:28:36;;;;;;;0.32;0.32;;;;;;;6.14;50.70;102510.66;5088787;28;20039;-79
2022/04/03 00:31:03;;;;;;;0.05;0.05;;;;;;;6.10;51.06;102503.50;5087891;28;20438;-78
2022/04/03 00:33:29;;;;;;;0.10;0.10;;;;;;;6.06;51.31;102509.56;5097588;28;20027;-79
2022/04/03 00:35:56;;;;;;;0.10;0.10;;;;;;;6.02;51.29;102505.09;5097149;28;20061;-82
2022/04/03 00:38:22;;;;;;;0.10;0.10;;;;;;;5.98;51.19;102506.75;5087983;28;20242;-80
2022/04/03 00:40:51;;;;;;;0.20;0.20;;;;;;;5.98;51.70;102506.75;5087466;28;20047;-80
2022/04/03 00:43:18;;;;;;;0.10;0.10;;;;;;;5.94;51.41;102502.22;5089597;28;20055;-79
2022/04/03 00:45:46;;;;;;;0.10;0.10;;;;;;;5.97;51.88;102506.69;5082855;28;20043;-78
2022/04/03 00:48:13;;;;;;;0.15;0.15;;;;;;;5.93;51.57;102504.78;5083346;28;20036;-78
2022/04/03 00:50:40;;;;;;;0.10;0.10;;;;;;;5.87;51.39;102502.91;5081744;28;20485;-78
2022/04/03 00:53:07;;;;;;;0.10;0.10;;;;;;;5.80;51.48;102514.13;5082949;28;20121;-78
2022/04/03 00:55:33;;;;;;;0.10;0.10;;;;;;;5.70;51.29;102512.09;5089846;22;20051;-77
2022/04/03 00:58:01;;;;;;;0.10;0.10;;;;;;;5.58;52.04;102507.38;5070525;28;20510;-76
2022/04/03 01:00:27;;;;;;;0.10;0.10;;;;;;;5.46;52.20;102508.81;5069930;28;20028;-77
2022/04/03 01:02:54;;;;;;;0.10;0.10;;;;;;;5.37;52.26;102507.66;5071003;28;20149;-77
2022/04/03 01:05:20;;;;;;;0.10;0.10;;;;;;;5.27;52.57;102514.41;5070586;28;20415;-77
2022/04/03 01:07:46;;;;;;;0.10;0.10;;;;;;;5.17;52.93;102511.50;5067402;28;20032;-77
2022/04/03 01:10:12;;;;;;;0.10;0.10;;;;;;;5.12;52.65;102512.22;5068518;28;20032;-76
2022/04/03 01:12:40;;;;;;;0.10;0.10;;;;;;;5.05;53.29;102508.53;5069078;28;20027;-76
2022/04/03 01:15:07;;;;;;;0.10;0.10;;;;;;;5.00;53.70;102512.75;5069690;28;20024;-76
2022/04/03 01:17:33;;;;;;;0.13;0.13;;;;;;;4.93;53.71;102509.03;5069840;28;20072;-77
2022/04/03 01:19:59;;;;;;;0.10;0.10;;;;;;;4.88;53.24;102501.88;5064390;28;20123;-77
2022/04/03 01:22:25;;;;;;;0.10;0.10;;;;;;;4.81;54.44;102501.69;5066811;28;20487;-76
2022/04/03 01:24:56;;;;;;;0.10;0.10;;;;;;;4.76;54.29;102497.13;5068124;28;20029;-76
2022/04/03 01:27:22;;;;;;;0.10;0.10;;;;;;;4.67;53.79;102498.66;5072658;28;20150;-77
2022/04/03 01:29:49;;;;;;;0.17;0.17;;;;;;;4.57;54.11;102496.56;5068181;28;20029;-76
2022/04/03 01:32:15;;;;;;;0.10;0.10;;;;;;;4.51;54.92;102505.13;5070822;28;20020;-76
2022/04/03 01:34:41;;;;;;;0.10;0.10;;;;;;;4.45;54.06;102502.31;5071409;28;20027;-76
2022/04/03 01:37:07;;;;;;;0.17;0.17;;;;;;;4.36;54.42;102496.75;5070557;28;20039;-76
2022/04/03 01:39:33;;;;;;;0.10;0.10;;;;;;;4.32;54.09;102494.88;5070903;28;20037;-76
2022/04/03 01:42:01;;;;;;;0.20;0.20;;;;;;;4.28;54.32;102483.41;5067622;28;20032;-76
2022/04/03 01:44:27;;;;;;;0.10;0.10;;;;;;;4.25;55.12;102482.41;5068721;28;20054;-77
2022/04/03 01:46:53;;;;;;;0.17;0.17;;;;;;;4.23;54.93;102479.72;5068690;28;20032;-76
2022/04/03 01:49:19;;;;;;;0.10;0.10;;;;;;;4.23;54.50;102473.59;5069909;28;20081;-77
2022/04/03 01:51:46;;;;;;;0.10;0.10;;;;;;;4.20;54.96;102475.28;5067757;28;20073;-76
2022/04/03 01:54:12;;;;;;;0.20;0.20;;;;;;;4.20;55.30;102479.66;5070680;28;20059;-76
2022/04/03 01:56:38;;;;;;;0.20;0.20;;;;;;;4.20;55.46;102475.28;5074150;28;20559;-76
2022/04/03 01:59:05;;;;;;;0.10;0.10;;;;;;;4.19;54.85;102483.09;5050487;28;20028;-76
2022/04/03 02:01:33;;;;;;;0.10;0.10;;;;;;;4.18;55.20;102482.19;5072149;28;20025;-76
2022/04/03 02:04:00;;;;;;;0.10;0.10;;;;;;;4.18;54.96;102486.56;5071711;28;20032;-77
2022/04/03 02:06:27;;;;;;;0.22;0.22;;;;;;;4.15;55.76;102482.13;5072431;28;20230;-76
2022/04/03 02:08:53;;;;;;;0.10;0.10;;;;;;;4.12;55.09;102482.00;5055394;28;20084;-76
2022/04/03 02:11:20;;;;;;;0.10;0.10;;;;;;;4.11;55.18;102481.94;5070221;28;20090;-76
2022/04/03 02:13:46;;;;;;;0.10;0.10;;;;;;;4.08;54.93;102480.13;5071514;28;20040;-76
2022/04/03 02:16:12;;;;;;;0.10;0.10;;;;;;;4.05;54.93;102486.16;5069411;28;20111;-77
2022/04/03 02:18:38;;;;;;;0.10;0.10;;;;;;;4.02;54.72;102486.03;5071684;28;20032;-77
2022/04/03 02:21:05;;;;;;;0.10;0.10;;;;;;;3.99;56.08;102488.56;5067871;28;20102;-76
2022/04/03 02:23:31;;;;;;;0.10;0.10;;;;;;;3.98;55.75;102481.53;5077236;28;20360;-76
2022/04/03 02:25:57;;;;;;;0.10;0.10;;;;;;;3.97;55.84;102492.00;5072093;28;20032;-77
2022/04/03 02:28:23;;;;;;;0.63;0.63;;;;;;;3.95;55.40;102494.56;5075064;28;20064;-78
2022/04/03 02:30:50;;;;;;;0.20;0.20;;;;;;;3.94;55.69;102486.63;5077897;28;20066;-78
2022/04/03 02:33:16;;;;;;;0.10;0.10;;;;;;;3.91;56.08;102490.03;5075479;28;20407;-78
2022/04/03 02:35:42;;;;;;;0.20;0.20;;;;;;;3.89;55.81;102486.50;5075200;28;20071;-78
2022/04/03 02:38:09;;;;;;;0.10;0.10;;;;;;;3.86;56.31;102483.75;5076501;28;20036;-77
2022/04/03 02:40:35;;;;;;;0.20;0.20;;;;;;;3.86;56.08;102489.00;5076041;28;20079;-77
2022/04/03 02:43:02;;;;;;;0.10;0.10;;;;;;;3.83;55.92;102487.16;5070230;28;20403;-77
2022/04/03 02:45:28;;;;;;;0.10;0.10;;;;;;;3.80;55.98;102489.69;5080716;28;20473;-77
2022/04/03 02:47:56;;;;;;;0.15;0.15;;;;;;;3.80;55.93;102494.03;5077904;28;20036;-78
2022/04/03 02:50:24;;;;;;;0.10;0.10;;;;;;;3.77;56.59;102483.44;5077801;28;20047;-77
2022/04/03 02:52:52;;;;;;;0.10;0.10;;;;;;;3.76;56.02;102484.28;5076923;28;20040;-78
2022/04/03 02:55:20;;;;;;;0.10;0.10;;;;;;;3.74;56.02;102484.22;5076691;28;20028;-78
2022/04/03 02:57:46;;;;;;;0.17;0.17;;;;;;;3.71;56.45;102492.88;5075694;28;20797;-78
2022/04/03 03:00:14;;;;;;;0.10;0.10;;;;;;;3.71;56.20;102489.34;5076585;28;20077;-78
2022/04/03 03:02:42;;;;;;;0.30;0.30;;;;;;;3.69;55.79;102483.19;5076581;28;20024;-77
2022/04/03 03:05:09;;;;;;;0.10;0.10;;;;;;;3.66;56.61;102491.81;5077562;28;20028;-78
2022/04/03 03:07:37;;;;;;;0.10;0.10;;;;;;;3.66;56.54;102494.44;5076205;28;20025;-78
2022/04/03 03:10:06;;;;;;;0.10;0.10;;;;;;;3.67;57.11;102503.19;5078216;28;20016;-78
2022/04/03 03:12:33;;;;;;;0.10;0.10;;;;;;;3.60;57.35;102491.63;5075325;28;20119;-78
2022/04/03 03:14:59;;;;;;;0.20;0.20;;;;;;;3.55;57.61;102503.63;5073385;28;20042;-78
2022/04/03 03:17:26;;;;;;;0.10;0.10;;;;;;;3.51;57.00;102502.63;5076734;28;20050;-78
2022/04/03 03:19:52;;;;;;;0.10;0.10;;;;;;;3.45;57.30;102505.06;5076674;28;20480;-78
2022/04/03 03:22:19;;;;;;;0.15;0.15;;;;;;;3.43;56.99;102506.72;5074150;28;20093;-78
2022/04/03 03:24:45;;;;;;;0.20;0.20;;;;;;;3.39;57.41;102502.22;5072796;28;20045;-77
2022/04/03 03:27:11;;;;;;;0.20;0.20;;;;;;;3.37;57.19;102514.38;5073408;28;20076;-78
2022/04/03 03:29:38;;;;;;;0.13;0.13;;;;;;;3.36;57.94;102508.22;5069770;28;20031;-78
2022/04/03 03:32:05;;;;;;;0.15;0.15;;;;;;;3.36;58.07;102497.72;5073886;28;20024;-78
2022/04/03 03:34:31;;;;;;;0.10;0.10;;;;;;;3.36;57.65;102496.84;5080711;28;20085;-78
2022/04/03 03:36:57;;;;;;;0.13;0.13;;;;;;;3.36;58.21;102504.72;5080603;28;20027;-77
2022/04/03 03:39:24;;;;;;;0.10;0.10;;;;;;;3.34;57.70;102503.75;5077065;28;20107;-78
2022/04/03 03:41:52;;;;;;;0.20;0.20;;;;;;;3.31;57.93;102499.31;5080297;28;20035;-77
2022/04/03 03:44:18;;;;;;;0.10;0.10;;;;;;;3.27;57.61;102501.78;5076748;28;20033;-78
2022/04/03 03:46:44;;;;;;;0.20;0.20;;;;;;;3.23;57.58;102491.16;5074452;28;20549;-78
2022/04/03 03:49:10;;;;;;;0.20;0.20;;;;;;;3.21;57.96;102497.19;5075607;28;20032;-78
2022/04/03 03:51:37;;;;;;;0.10;0.10;;;;;;;3.19;57.33;102499.75;5073705;28;20384;-78
2022/04/03 03:54:04;;;;;;;0.10;0.10;;;;;;;3.17;57.77;102496.19;5071338;28;20561;-77
2022/04/03 03:56:31;;;;;;;0.20;0.20;;;;;;;3.16;58.36;102499.63;5077761;28;20427;-78
2022/04/03 03:58:57;;;;;;;0.20;0.20;;;;;;;3.14;57.95;102493.47;5076310;28;20108;-77
2022/04/03 04:01:23;;;;;;;0.20;0.20;;;;;;;3.13;58.87;102491.66;5073913;28;20126;-78
2022/04/03 04:03:50;;;;;;;0.20;0.20;;;;;;;3.12;58.88;102487.25;5077086;28;20032;-78
2022/04/03 04:06:16;;;;;;;0.20;0.20;;;;;;;3.11;59.11;102497.69;5073271;28;20028;-77
2022/04/03 04:08:42;;;;;;;0.13;0.13;;;;;;;3.09;58.22;102497.63;5075250;28;20115;-78
2022/04/03 04:11:09;;;;;;;0.10;0.10;;;;;;;3.07;58.77;102500.19;5074217;28;20262;-78
2022/04/03 04:13:35;;;;;;;0.10;0.10;;;;;;;3.07;58.31;102499.28;5075233;28;20120;-77
2022/04/03 04:16:02;;;;;;;0.10;0.10;;;;;;;3.07;58.36;102499.28;5074427;28;20042;-77
2022/04/03 04:18:28;;;;;;;0.10;0.10;;;;;;;3.07;58.74;102504.53;5075078;28;20032;-77
2022/04/03 04:20:56;;;;;;;0.10;0.10;;;;;;;3.05;59.25;102512.34;5073077;28;20035;-78
2022/04/03 04:23:22;;;;;;;0.10;0.10;;;;;;;3.05;59.03;102516.66;5068995;28;20102;-77
2022/04/03 04:25:48;;;;;;;0.15;0.15;;;;;;;3.07;59.00;102515.00;5070764;28;20109;-77
2022/04/03 04:28:14;;;;;;;0.20;0.20;;;;;;;3.09;58.72;102513.34;5078460;28;20485;-78
2022/04/03 04:30:40;;;;;;;0.20;0.20;;;;;;;3.09;59.04;102508.13;5070520;28;20025;-77
2022/04/03 04:33:06;;;;;;;0.10;0.10;;;;;;;3.13;59.25;102514.31;5072239;28;20389;-77
2022/04/03 04:35:34;;;;;;;0.10;0.10;;;;;;;3.13;59.89;102509.09;5061766;28;20111;-77
2022/04/03 04:38:01;;;;;;;0.10;0.10;;;;;;;3.16;57.59;102511.84;5072711;28;20036;-77
2022/04/03 04:40:27;;;;;;;0.20;0.20;;;;;;;3.17;58.95;102516.25;5069835;28;20035;-78
2022/04/03 04:42:55;;;;;;;0.60;0.60;;;;;;;3.18;58.49;102512.81;5072449;28;20116;-77
2022/04/03 04:45:22;;;;;;;0.20;0.20;;;;;;;3.17;58.87;102519.75;5064909;28;20029;-77
2022/04/03 04:47:48;;;;;;;0.20;0.20;;;;;;;3.15;58.95;102516.16;5070970;28;20036;-78
2022/04/03 04:50:16;;;;;;;0.10;0.10;;;;;;;3.15;60.01;102518.78;5058695;28;20032;-77
2022/04/03 04:52:43;;;;;;;2.05;1.15;;;;;;;3.13;60.08;102520.47;5069196;28;20445;-77
2022/04/03 04:55:09;;;;;;;0.10;0.10;;;;;;;3.10;60.37;102514.22;5070273;28;20037;-78
2022/04/03 04:57:38;;;;;;;0.10;0.10;;;;;;;3.11;59.23;102521.25;5069341;28;20036;-78
2022/04/03 05:00:08;;;;;;;0.10;0.10;;;;;;;3.08;59.67;102517.69;5076764;28;20039;-77
2022/04/03 05:02:34;;;;;;;0.17;0.17;;;;;;;3.05;60.26;102516.66;5074939;28;20093;-77
2022/04/03 05:05:00;;;;;;;0.20;0.20;;;;;;;3.01;60.52;102520.88;5062503;28;20498;-77
2022/04/03 05:07:28;;;;;;;0.10;0.10;;;;;;;3.01;60.18;102514.78;5070680;28;20020;-78
2022/04/03 05:09:54;;;;;;;0.20;0.20;;;;;;;2.98;59.49;102512.94;5070290;28;20028;-77
2022/04/03 05:12:20;;;;;;;0.30;0.30;;;;;;;2.97;59.77;102513.75;5068391;28;20028;-78
2022/04/03 05:14:47;;;;;;;0.10;0.10;;;;;;;2.96;60.15;102513.72;5070749;28;20036;-77
2022/04/03 05:17:14;;;;;;;0.20;0.20;;;;;;;2.94;60.30;102517.97;5072109;28;20028;-78
2022/04/03 05:19:40;;;;;;;0.20;0.20;;;;;;;2.94;60.10;102512.75;5075809;28;20039;-77
2022/04/03 05:22:06;;;;;;;0.17;0.17;;;;;;;2.93;60.00;102517.09;5076854;28;20030;-78
2022/04/03 05:24:32;;;;;;;0.10;0.10;;;;;;;2.91;60.74;102516.16;5071451;28;20034;-77
2022/04/03 05:26:59;;;;;;;0.10;0.10;;;;;;;2.90;60.36;102516.97;5075730;28;20500;-77
2022/04/03 05:29:25;;;;;;;0.10;0.10;;;;;;;2.87;60.45;102509.00;5073448;28;20030;-77
2022/04/03 05:31:52;;;;;;;0.10;0.10;;;;;;;2.87;60.71;102509.91;5074579;28;20034;-77
2022/04/03 05:34:18;;;;;;;0.20;0.20;;;;;;;2.88;59.15;102510.81;5074909;28;20127;-77
2022/04/03 05:36:44;;;;;;;0.10;0.10;;;;;;;2.88;59.51;102509.06;5074247;28;20028;-77
2022/04/03 05:39:10;;;;;;;0.15;0.15;;;;;;;2.88;59.53;102502.94;5073971;28;20112;-78
2022/04/03 05:41:37;;;;;;;0.20;0.20;;;;;;;2.89;59.54;102500.38;5071490;28;20024;-77
2022/04/03 05:44:04;;;;;;;0.17;0.17;;;;;;;2.91;59.88;102508.28;5072280;28;20074;-78
2022/04/03 05:46:30;;;;;;;0.10;0.10;;;;;;;2.90;60.33;102506.50;5075613;28;20394;-78
2022/04/03 05:48:56;;;;;;;0.10;0.10;;;;;;;2.87;61.11;102512.50;5072626;28;20040;-78
2022/04/03 05:51:22;;;;;;;0.10;0.10;;;;;;;2.86;61.40;102510.72;5078583;28;20052;-77
2022/04/03 05:53:48;;;;;;;0.17;0.17;;;;;;;2.89;60.17;102507.31;5066637;28;20038;-77
2022/04/03 05:56:14;;;;;;;0.10;0.10;;;;;;;2.88;60.68;102509.06;5067455;28;20445;-77
2022/04/03 05:58:40;;;;;;;0.20;0.20;;;;;;;2.91;61.01;102505.66;5071384;28;20040;-78
2022/04/03 06:01:06;;;;;;;0.15;0.15;;;;;;;2.94;61.23;102507.50;5070050;28;20024;-78
2022/04/03 06:03:33;;;;;;;0.20;0.20;;;;;;;2.97;61.29;102515.50;5072577;28;20398;-77
2022/04/03 06:06:00;;;;;;;0.17;0.17;;;;;;;3.01;60.64;102509.53;5066690;28;20040;-77
2022/04/03 06:08:26;;;;;;;0.20;0.20;;;;;;;3.03;61.51;102511.38;5068982;28;20126;-77
2022/04/03 06:10:52;;;;;;;0.17;0.17;;;;;;;3.06;61.18;102514.09;5073408;28;20514;-77
2022/04/03 06:13:18;;;;;;;0.10;0.10;;;;;;;3.10;60.76;102512.50;5075121;28;20032;-78
2022/04/03 06:15:46;;;;;;;0.20;0.20;;;;;;;3.16;60.18;102514.47;5070119;28;20032;-77
2022/04/03 06:18:15;;;;;;;0.17;0.17;;;;;;;3.21;60.39;102512.91;5071071;28;20063;-77
2022/04/03 06:20:42;;;;;;;0.10;0.10;;;;;;;3.24;60.76;102523.50;5071568;28;20484;-78
2022/04/03 06:23:17;;;;;;;0.10;0.10;;;;;;;3.35;59.44;102531.75;5077679;28;20076;-78
2022/04/03 06:25:45;;;;;;;0.10;0.10;;;;;;;3.37;60.13;102530.09;5074793;28;20063;-77
2022/04/03 06:28:11;;;;;;;0.10;0.10;;;;;;;3.42;60.26;102523.28;5071926;28;20040;-78
2022/04/03 06:30:38;;;;;;;0.20;0.20;;;;;;;3.49;60.45;102525.28;5069080;28;20040;-77
2022/04/03 06:33:04;;;;;;;0.20;0.20;;;;;;;3.54;60.31;102526.34;5072188;28;20047;-77
2022/04/03 06:35:31;;;;;;;0.20;0.20;;;;;;;3.60;61.11;102530.03;5067606;28;20043;-77
2022/04/03 06:37:57;;;;;;;0.10;0.10;;;;;;;3.66;60.99;102535.50;5068055;28;20037;-77
2022/04/03 06:40:23;;;;;;;0.20;0.20;;;;;;;3.75;60.35;102527.97;5070382;28;20069;-77
2022/04/03 06:42:50;;;;;;;0.10;0.10;;;;;;;3.86;60.20;102526.63;5069715;28;20067;-77
2022/04/03 06:45:16;;;;;;;0.10;0.10;;;;;;;3.95;60.23;102533.91;5071712;28;20023;-78
2022/04/03 06:47:43;;;;;;;0.20;0.20;;;;;;;4.07;59.74;102530.78;5070609;28;20033;-77
2022/04/03 06:50:09;;;;;;;0.20;0.20;;;;;;;4.18;60.21;102539.91;5071560;28;20028;-77
2022/04/03 06:52:36;;;;;;;0.10;0.10;;;;;;;4.29;60.63;102526.28;5069735;28;20156;-77
2022/04/03 06:55:04;;;;;;;0.10;0.10;;;;;;;4.42;59.56;102532.81;5091694;22;20153;-79
2022/04/03 06:57:30;;;;;;;0.10;0.10;;;;;;;4.52;59.08;102533.19;5083077;28;20036;-79
2022/04/03 06:59:57;;;;;;;0.93;0.90;;;;;;;4.66;59.94;102532.69;5088041;28;20027;-79
2022/04/03 07:02:23;;;;;;;0.17;0.17;;;;;;;4.74;58.98;102538.22;5068843;28;20037;-80
2022/04/03 07:04:49;;;;;;;0.20;0.20;;;;;;;4.84;58.40;102540.28;5064994;28;20397;-80
2022/04/03 07:07:23;;;;;;;0.20;0.20;;;;;;;4.96;59.02;102537.13;5071294;28;20119;-78
2022/04/03 07:09:50;;;;;;;0.10;0.10;;;;;;;5.02;58.66;102537.31;5064998;28;20900;-78
2022/04/03 07:12:17;;;;;;;0.10;0.10;;;;;;;5.10;59.36;102537.56;5063908;28;20040;-77
2022/04/03 07:14:43;;;;;;;0.10;0.10;;;;;;;5.22;59.04;102534.41;5062395;28;20040;-77
2022/04/03 07:17:09;;;;;;;1.38;1.38;;;;;;;5.35;58.82;102539.19;5065286;28;20066;-79
2022/04/03 07:19:35;;;;;;;0.20;0.20;;;;;;;5.51;58.70;102530.88;5065945;28;20036;-77
2022/04/03 07:22:02;;;;;;;0.10;0.10;;;;;;;5.64;58.71;102539.97;5076194;28;20115;-78
2022/04/03 07:24:29;;;;;;;0.10;0.10;;;;;;;5.77;58.07;102535.97;5045409;28;20032;-78
2022/04/03 07:26:55;;;;;;;0.10;0.10;;;;;;;5.97;57.53;102533.00;5064482;28;20486;-77
2022/04/03 07:29:23;;;;;;;0.10;0.10;;;;;;;6.17;57.14;102532.63;5063261;28;20036;-77
2022/04/03 07:31:50;;;;;;;0.10;0.10;;;;;;;6.31;56.61;102534.75;5063977;28;20079;-77
2022/04/03 07:34:16;;;;;;;0.10;0.10;;;;;;;6.43;55.40;102539.44;5064599;28;20036;-77
2022/04/03 07:36:43;;;;;;;0.10;0.10;;;;;;;6.48;53.13;102527.28;5044431;28;20059;-77
2022/04/03 07:39:10;;;;;;;0.20;0.20;;;;;;;6.65;53.45;102532.03;5066837;28;20047;-77
2022/04/03 07:41:37;;;;;;;0.10;0.10;;;;;;;6.68;52.63;102526.88;5068155;28;20113;-77
2022/04/03 07:44:05;;;;;;;0.10;0.10;;;;;;;6.78;53.14;102526.22;5064399;28;20144;-77
2022/04/03 07:46:32;;;;;;;0.10;0.10;;;;;;;6.75;51.78;102522.63;5061919;28;20558;-77
2022/04/03 07:48:58;;;;;;;0.10;0.10;;;;;;;6.70;50.55;102527.78;5060032;28;20044;-77
2022/04/03 07:51:27;;;;;;;0.10;0.10;;;;;;;6.77;50.94;102534.97;5060507;28;20040;-77
2022/04/03 07:53:54;;;;;;;0.10;0.10;;;;;;;6.76;51.80;102527.03;5063249;28;20505;-77
2022/04/03 07:56:21;;;;;;;0.10;0.10;;;;;;;6.80;51.58;102531.50;5064133;28;20032;-77
2022/04/03 07:58:47;;;;;;;0.10;0.10;;;;;;;6.89;51.96;102533.47;5066652;28;20036;-78
2022/04/03 08:01:14;;;;;;;0.10;0.10;;;;;;;6.96;52.05;102531.00;5065643;28;20386;-78
2022/04/03 08:03:40;;;;;;;0.17;0.17;;;;;;;7.02;51.34;102530.25;5063178;28;20029;-78
2022/04/03 08:06:06;;;;;;;0.20;0.20;;;;;;;7.12;51.50;102529.59;5062746;28;20086;-78
2022/04/03 08:08:33;;;;;;;0.10;0.10;;;;;;;7.19;50.94;102540.25;5062416;28;20087;-78
2022/04/03 08:10:59;;;;;;;0.10;0.10;;;;;;;7.27;50.39;102536.06;5063619;28;20139;-77
2022/04/03 08:13:25;;;;;;;0.10;0.10;;;;;;;7.41;50.44;102534.59;5066956;28;20401;-78
2022/04/03 08:15:51;;;;;;;0.10;0.10;;;;;;;7.64;50.45;102531.53;5065807;28;20032;-78
2022/04/03 08:18:19;;;;;;;0.10;0.10;;;;;;;7.78;49.55;102537.94;5060263;28;20494;-76
2022/04/03 08:20:45;;;;;;;0.10;0.10;;;;;;;8.02;49.77;102533.09;5064014;28;20624;-77
2022/04/03 08:23:11;;;;;;;0.10;0.10;;;;;;;8.17;49.39;102533.34;5069532;28;20048;-78
2022/04/03 08:25:39;;;;;;;0.30;0.30;;;;;;;8.37;49.45;102540.72;5060339;28;20052;-76
2022/04/03 08:28:07;;;;;;;0.10;0.10;;;;;;;8.50;48.15;102547.13;5059873;28;20174;-77
2022/04/03 08:30:36;;;;;;;0.10;0.10;;;;;;;8.54;47.61;102544.56;5066726;28;20371;-76
2022/04/03 08:33:05;;;;;;;0.10;0.10;;;;;;;8.68;47.63;102547.41;5067316;28;20098;-76
2022/04/03 08:35:32;;;;;;;0.10;0.10;;;;;;;8.75;46.65;102537.84;5068871;28;20036;-77
2022/04/03 08:38:00;;;;;;;0.10;0.10;;;;;;;8.83;47.24;102541.47;5072037;28;20099;-77
2022/04/03 08:40:27;;;;;;;0.82;0.82;;;;;;;8.89;46.49;102541.56;5069602;28;20032;-77
2022/04/03 08:43:04;;;;;;;0.10;0.10;;;;;;;9.09;47.34;102540.06;5074417;28;20038;-78
2022/04/03 08:45:31;;;;;;;0.10;0.10;;;;;;;9.25;46.89;102541.16;5068537;28;20028;-82
2022/04/03 08:47:59;;;;;;;0.10;0.10;;;;;;;9.39;46.43;102553.69;5075106;28;20531;-78
2022/04/03 08:50:36;;;;;;;0.10;0.10;;;;;;;9.44;45.88;102555.50;5074060;28;20119;-78
2022/04/03 08:53:05;;;;;;;0.10;0.10;;;;;;;9.52;46.20;102543.22;5070436;28;20048;-77
2022/04/03 08:55:31;;;;;;;0.05;0.05;;;;;;;9.52;45.06;102543.22;5072614;28;20044;-78
2022/04/03 08:57:58;;;;;;;0.10;0.10;;;;;;;9.59;45.60;102542.44;5071113;28;20024;-77
2022/04/03 09:00:25;;;;;;;0.10;0.10;;;;;;;9.59;45.64;102534.50;5073142;28;20020;-76
2022/04/03 09:02:51;;;;;;;0.15;0.15;;;;;;;9.61;45.72;102538.06;5070643;28;20478;-78
2022/04/03 09:05:18;;;;;;;0.10;0.10;;;;;;;9.66;45.35;102541.66;5069829;28;20090;-77
2022/04/03 09:07:58;;;;;;;0.17;0.17;;;;;;;9.78;45.21;102535.59;5054719;28;20028;-75
2022/04/03 09:10:24;;;;;;;0.10;0.10;;;;;;;9.89;43.12;102535.69;5059565;28;20082;-76
2022/04/03 09:12:51;;;;;;;0.10;0.10;;;;;;;10.18;45.40;102525.38;5056271;28;20265;-77
2022/04/03 09:15:19;;;;;;;0.10;0.10;;;;;;;10.24;43.93;102529.84;5062749;28;20035;-77
2022/04/03 09:17:49;;;;;;;0.03;0.03;;;;;;;10.30;43.24;102526.38;5058738;28;20090;-76
2022/04/03 09:20:18;;;;;;;0.10;0.10;;;;;;;10.26;43.49;102528.09;5065757;28;20029;-77
2022/04/03 09:22:51;;;;;;;0.10;0.10;;;;;;;10.24;43.77;102524.53;5061342;28;20135;-77
2022/04/03 09:25:28;;;;;;;0.10;0.10;;;;;;;10.10;42.78;102526.19;5059228;28;21791;-78
2022/04/03 09:27:59;;;;;;;0.10;0.10;;;;;;;10.07;43.86;102532.34;5062846;28;20036;-78
2022/04/03 09:30:32;;;;;;;0.10;0.10;;;;;;;9.63;46.13;102541.63;5065584;28;20032;-77
2022/04/03 09:32:59;;;;;;;0.10;0.10;;;;;;;9.50;48.45;102552.94;5061864;28;20097;-77
2022/04/03 09:35:30;;;;;;;0.10;0.10;;;;;;;9.26;49.54;102548.22;5059621;28;20037;-77
2022/04/03 09:38:15;;;;;;;0.10;0.10;;;;;;;9.09;51.46;102548.00;5063358;28;20036;-77
2022/04/03 09:43:22;;;;;;;0.03;0.03;;;;;;;8.82;54.07;102545.00;5103313;27;20363;-78
2022/04/03 09:45:51;;;;;;;0.10;0.10;;;;;;;8.90;52.16;102539.81;5079070;28;20024;-79
2022/04/03 09:48:40;;;;;;;0.10;0.10;;;;;;;9.13;52.60;102537.47;5082120;28;20075;-77
2022/04/03 09:59:06;;;;;;;0.00;0.00;;;;;;;9.58;51.79;102535.38;5108405;27;20466;-78
2022/04/03 10:01:37;;;;;;;0.20;0.20;;;;;;;9.70;51.36;102532.84;5064165;28;20074;-77
2022/04/03 10:04:05;;;;;;;0.10;0.10;;;;;;;9.75;51.41;102530.28;5058336;28;20071;-77
2022/04/03 10:06:32;;;;;;;0.10;0.10;;;;;;;9.86;50.58;102525.97;5059186;28;20056;-77
2022/04/03 10:09:01;;;;;;;0.10;0.10;;;;;;;9.99;50.48;102516.41;5058438;28;20040;-78
2022/04/03 10:11:29;;;;;;;0.10;0.10;;;;;;;10.11;50.37;102504.16;5060009;28;20108;-77
2022/04/03 10:13:55;;;;;;;0.10;0.10;;;;;;;10.13;50.35;102513.88;5068314;28;20033;-77
2022/04/03 10:16:22;;;;;;;0.10;0.10;;;;;;;10.15;50.05;102503.28;5072312;28;20090;-78
2022/04/03 10:18:50;;;;;;;0.10;0.10;;;;;;;10.17;49.98;102506.84;5072360;28;20485;-77
2022/04/03 10:21:23;;;;;;;0.10;0.10;;;;;;;10.21;49.50;102503.34;5076737;28;20059;-78
2022/04/03 10:23:53;;;;;;;0.10;0.10;;;;;;;10.33;49.72;102510.47;5067005;28;23287;-78
2022/04/03 10:26:22;;;;;;;0.10;0.10;;;;;;;10.56;49.43;102505.38;5060408;28;20033;-76
2022/04/03 10:28:53;;;;;;;0.00;0.00;;;;;;;10.80;48.98;102495.81;5065014;28;20398;-77
2022/04/03 10:31:20;;;;;;;0.10;0.10;;;;;;;10.98;46.99;102490.63;5061504;28;20070;-78
2022/04/03 10:33:50;;;;;;;0.10;0.10;;;;;;;11.17;48.06;102488.03;5065916;28;20514;-78
2022/04/03 10:36:25;;;;;;;0.00;0.00;;;;;;;11.36;47.84;102488.09;5062518;28;20032;-77
2022/04/03 10:39:08;;;;;;;0.10;0.10;;;;;;;11.48;45.84;102488.16;5058286;28;20052;-78
2022/04/03 10:41:36;;;;;;;0.10;0.10;;;;;;;11.59;45.70;102480.19;5058159;28;20451;-78
2022/04/03 10:44:19;;;;;;;0.10;0.10;;;;;;;11.85;45.51;102482.00;5060594;28;20041;-77
2022/04/03 10:50:00;;;;;;;0.00;0.00;;;;;;;11.79;44.76;102477.59;5088135;27;20094;-78
2022/04/03 10:55:19;;;;;;;0.00;0.00;;;;;;;11.29;44.74;102472.16;5101243;27;20412;-80
2022/04/03 10:57:49;;;;;;;0.10;0.10;;;;;;;10.95;44.24;102482.66;5085732;28;20055;-82
2022/04/03 11:02:59;;;;;;;0.10;0.10;;;;;;;10.60;43.68;102480.66;5111420;27;20136;-78
2022/04/03 11:11:07;;;;;;;0.75;0.75;;;;;;;10.54;41.75;102459.44;5067058;28;20761;-79
2022/04/03 11:16:13;;;;;;;0.10;0.10;;;;;;;10.49;42.43;102475.31;5110883;27;20731;-79
2022/04/03 11:24:15;;;;;;;0.10;0.10;;;;;;;10.54;43.58;102463.84;5038280;28;20133;-77
2022/04/03 11:26:43;;;;;;;0.10;0.10;;;;;;;10.39;43.78;102460.22;5050506;28;20037;-78
2022/04/03 11:29:10;;;;;;;0.03;0.03;;;;;;;10.31;43.72;102459.25;5050161;28;20592;-77
2022/04/03 11:31:38;;;;;;;0.10;0.10;;;;;;;10.28;44.32;102456.56;5050195;28;20410;-78
2022/04/03 11:34:06;;;;;;;0.00;0.00;;;;;;;10.15;43.91;102468.84;5048793;28;20063;-79
2022/04/03 11:36:33;;;;;;;0.10;0.10;;;;;;;10.09;44.22;102460.84;5045326;28;20031;-77
2022/04/03 11:39:01;;;;;;;0.13;0.13;;;;;;;10.06;44.73;102463.50;5051424;28;20040;-79
2022/04/03 11:41:35;;;;;;;0.10;0.10;;;;;;;10.14;44.47;102448.53;5052986;28;20033;-78
2022/04/03 11:44:06;;;;;;;0.10;0.10;;;;;;;10.16;44.85;102454.75;5050362;28;20082;-78
2022/04/03 11:46:40;;;;;;;0.10;0.10;;;;;;;10.14;45.51;102459.13;5046950;28;20025;-77
2022/04/03 11:49:15;;;;;;;0.10;0.10;;;;;;;10.06;47.02;102455.56;5046510;28;20036;-77
2022/04/03 11:52:05;;;;;;;0.10;0.10;;;;;;;10.02;46.76;102452.84;5042450;28;20034;-79
2022/04/03 11:54:33;;;;;;;0.20;0.20;;;;;;;9.93;46.29;102450.16;5031379;28;20044;-77
2022/04/03 11:57:01;;;;;;;0.10;0.10;;;;;;;9.80;46.39;102450.91;5039234;28;20856;-77
2022/04/03 11:59:28;;;;;;;0.10;0.10;;;;;;;9.87;46.99;102450.09;5042389;28;20025;-79
2022/04/03 12:01:54;;;;;;;0.10;0.10;;;;;;;9.86;46.91;102450.97;5045135;28;20033;-78
2022/04/03 12:04:23;;;;;;;0.08;0.08;;;;;;;9.81;47.30;102439.44;5039250;28;20037;-80
2022/04/03 12:06:55;;;;;;;0.00;0.00;;;;;;;9.96;47.19;102439.56;5041080;28;20625;-78